sensor_id;sensor_type;location;lat;lon;timestamp;pressure;altitude;pressure_sealevel;temperature
70969;BMP280;58630;43.022;25.100;2024-02-15T00:00:03;;;;10.40
70969;BMP280;58630;43.022;25.100;2024-02-15T00:02:29;;;;10.40
70969;BMP280;58630;43.022;25.100;2024-02-15T00:04:54;;;;10.40
70969;BMP280;58630;43.022;25.100;2024-02-15T00:07:21;;;;10.40
70969;BMP280;58630;43.022;25.100;2024-02-15T00:09:48;;;;10.40
70969;BMP280;58630;43.022;25.100;2024-02-15T00:12:13;;;;10.40
70969;BMP280;58630;43.022;25.100;2024-02-15T00:14:39;;;;10.40
70969;BMP280;58630;43.022;25.100;2024-02-15T00:17:05;;;;10.40
70969;BMP280;58630;43.022;25.100;2024-02-15T00:19:30;;;;10.40
70969;BMP280;58630;43.022;25.100;2024-02-15T00:21:56;;;;10.40
70969;BMP280;58630;43.022;25.100;2024-02-15T00:24:22;;;;10.40
70969;BMP280;58630;43.022;25.100;2024-02-15T00:26:49;;;;10.40
70969;BMP280;58630;43.022;25.100;2024-02-15T00:29:14;;;;10.40
70969;BMP280;58630;43.022;25.100;2024-02-15T00:31:40;;;;10.40
70969;BMP280;58630;43.022;25.100;2024-02-15T00:34:06;;;;10.40
70969;BMP280;58630;43.022;25.100;2024-02-15T00:36:31;;;;10.40
70969;BMP280;58630;43.022;25.100;2024-02-15T00:39:00;;;;10.40
70969;BMP280;58630;43.022;25.100;2024-02-15T00:41:26;;;;10.40
70969;BMP280;58630;43.022;25.100;2024-02-15T00:43:53;;;;10.40
70969;BMP280;58630;43.022;25.100;2024-02-15T00:46:18;;;;10.40
70969;BMP280;58630;43.022;25.100;2024-02-15T00:48:44;;;;10.40
70969;BMP280;58630;43.022;25.100;2024-02-15T00:51:10;;;;10.40
70969;BMP280;58630;43.022;25.100;2024-02-15T00:53:35;;;;10.40
70969;BMP280;58630;43.022;25.100;2024-02-15T00:56:01;;;;10.30
70969;BMP280;58630;43.022;25.100;2024-02-15T00:58:26;;;;10.40
70969;BMP280;58630;43.022;25.100;2024-02-15T01:00:55;;;;10.40
70969;BMP280;58630;43.022;25.100;2024-02-15T01:03:21;;;;10.40
70969;BMP280;58630;43.022;25.100;2024-02-15T01:05:46;;;;10.30
70969;BMP280;58630;43.022;25.100;2024-02-15T01:08:12;;;;10.30
70969;BMP280;58630;43.022;25.100;2024-02-15T01:10:37;;;;10.30
70969;BMP280;58630;43.022;25.100;2024-02-15T01:13:03;;;;10.30
70969;BMP280;58630;43.022;25.100;2024-02-15T01:15:29;;;;10.30
70969;BMP280;58630;43.022;25.100;2024-02-15T01:17:55;;;;10.30
70969;BMP280;58630;43.022;25.100;2024-02-15T01:20:20;;;;10.30
70969;BMP280;58630;43.022;25.100;2024-02-15T01:22:46;;;;10.30
70969;BMP280;58630;43.022;25.100;2024-02-15T01:25:12;;;;10.30
70969;BMP280;58630;43.022;25.100;2024-02-15T01:27:38;;;;10.30
70969;BMP280;58630;43.022;25.100;2024-02-15T01:30:04;;;;10.30
70969;BMP280;58630;43.022;25.100;2024-02-15T01:32:30;;;;10.30
70969;BMP280;58630;43.022;25.100;2024-02-15T01:34:56;;;;10.30
70969;BMP280;58630;43.022;25.100;2024-02-15T01:37:22;;;;10.30
70969;BMP280;58630;43.022;25.100;2024-02-15T01:39:47;;;;10.30
70969;BMP280;58630;43.022;25.100;2024-02-15T01:42:13;;;;10.30
70969;BMP280;58630;43.022;25.100;2024-02-15T01:44:41;;;;10.30
70969;BMP280;58630;43.022;25.100;2024-02-15T01:47:10;;;;10.30
70969;BMP280;58630;43.022;25.100;2024-02-15T01:49:35;;;;10.30
70969;BMP280;58630;43.022;25.100;2024-02-15T01:52:01;;;;10.30
70969;BMP280;58630;43.022;25.100;2024-02-15T01:54:27;;;;10.30
70969;BMP280;58630;43.022;25.100;2024-02-15T01:56:53;;;;10.30
70969;BMP280;58630;43.022;25.100;2024-02-15T01:59:19;;;;10.30
70969;BMP280;58630;43.022;25.100;2024-02-15T02:01:46;;;;10.30
70969;BMP280;58630;43.022;25.100;2024-02-15T02:04:12;;;;10.30
70969;BMP280;58630;43.022;25.100;2024-02-15T02:06:37;;;;10.30
70969;BMP280;58630;43.022;25.100;2024-02-15T02:09:03;;;;10.30
70969;BMP280;58630;43.022;25.100;2024-02-15T02:11:29;;;;10.30
70969;BMP280;58630;43.022;25.100;2024-02-15T02:13:55;;;;10.30
70969;BMP280;58630;43.022;25.100;2024-02-15T02:16:27;;;;10.30
70969;BMP280;58630;43.022;25.100;2024-02-15T02:18:54;;;;10.30
70969;BMP280;58630;43.022;25.100;2024-02-15T02:21:20;;;;10.30
70969;BMP280;58630;43.022;25.100;2024-02-15T02:23:46;;;;10.30
70969;BMP280;58630;43.022;25.100;2024-02-15T02:26:15;;;;10.30
70969;BMP280;58630;43.022;25.100;2024-02-15T02:28:41;;;;10.30
70969;BMP280;58630;43.022;25.100;2024-02-15T02:31:06;;;;10.30
70969;BMP280;58630;43.022;25.100;2024-02-15T02:33:32;;;;10.30
70969;BMP280;58630;43.022;25.100;2024-02-15T02:35:58;;;;10.30
70969;BMP280;58630;43.022;25.100;2024-02-15T02:38:24;;;;10.30
70969;BMP280;58630;43.022;25.100;2024-02-15T02:40:51;;;;10.30
70969;BMP280;58630;43.022;25.100;2024-02-15T02:43:17;;;;10.30
70969;BMP280;58630;43.022;25.100;2024-02-15T02:45:43;;;;10.30
70969;BMP280;58630;43.022;25.100;2024-02-15T02:48:10;;;;10.20
70969;BMP280;58630;43.022;25.100;2024-02-15T02:50:37;;;;10.20
70969;BMP280;58630;43.022;25.100;2024-02-15T02:53:02;;;;10.20
70969;BMP280;58630;43.022;25.100;2024-02-15T02:55:28;;;;10.20
70969;BMP280;58630;43.022;25.100;2024-02-15T02:57:54;;;;10.20
70969;BMP280;58630;43.022;25.100;2024-02-15T03:00:20;;;;10.20
70969;BMP280;58630;43.022;25.100;2024-02-15T03:02:47;;;;10.20
70969;BMP280;58630;43.022;25.100;2024-02-15T03:05:12;;;;10.20
70969;BMP280;58630;43.022;25.100;2024-02-15T03:07:39;;;;10.20
70969;BMP280;58630;43.022;25.100;2024-02-15T03:10:07;;;;10.20
70969;BMP280;58630;43.022;25.100;2024-02-15T03:12:34;;;;10.20
70969;BMP280;58630;43.022;25.100;2024-02-15T03:15:01;;;;10.20
70969;BMP280;58630;43.022;25.100;2024-02-15T03:17:27;;;;10.20
70969;BMP280;58630;43.022;25.100;2024-02-15T03:19:52;;;;10.20
70969;BMP280;58630;43.022;25.100;2024-02-15T03:22:18;;;;10.20
70969;BMP280;58630;43.022;25.100;2024-02-15T03:24:43;;;;10.20
70969;BMP280;58630;43.022;25.100;2024-02-15T03:27:09;;;;10.20
70969;BMP280;58630;43.022;25.100;2024-02-15T03:29:38;;;;10.20
70969;BMP280;58630;43.022;25.100;2024-02-15T03:32:03;;;;10.20
70969;BMP280;58630;43.022;25.100;2024-02-15T03:34:30;;;;10.20
70969;BMP280;58630;43.022;25.100;2024-02-15T03:36:56;;;;10.10
70969;BMP280;58630;43.022;25.100;2024-02-15T03:39:23;;;;10.10
70969;BMP280;58630;43.022;25.100;2024-02-15T03:41:49;;;;10.10
70969;BMP280;58630;43.022;25.100;2024-02-15T03:44:15;;;;10.10
70969;BMP280;58630;43.022;25.100;2024-02-15T03:46:44;;;;10.10
70969;BMP280;58630;43.022;25.100;2024-02-15T03:49:16;;;;10.10
70969;BMP280;58630;43.022;25.100;2024-02-15T03:51:42;;;;10.10
70969;BMP280;58630;43.022;25.100;2024-02-15T03:54:08;;;;10.10
70969;BMP280;58630;43.022;25.100;2024-02-15T03:56:34;;;;10.10
70969;BMP280;58630;43.022;25.100;2024-02-15T03:59:01;;;;10.10
70969;BMP280;58630;43.022;25.100;2024-02-15T04:01:30;;;;10.10
70969;BMP280;58630;43.022;25.100;2024-02-15T04:03:59;;;;10.10
70969;BMP280;58630;43.022;25.100;2024-02-15T04:06:25;;;;10.10
70969;BMP280;58630;43.022;25.100;2024-02-15T04:08:52;;;;10.10
70969;BMP280;58630;43.022;25.100;2024-02-15T04:11:18;;;;10.10
70969;BMP280;58630;43.022;25.100;2024-02-15T04:13:45;;;;10.10
70969;BMP280;58630;43.022;25.100;2024-02-15T04:16:10;;;;10.10
70969;BMP280;58630;43.022;25.100;2024-02-15T04:18:36;;;;10.10
70969;BMP280;58630;43.022;25.100;2024-02-15T04:21:03;;;;10.10
70969;BMP280;58630;43.022;25.100;2024-02-15T04:23:31;;;;10.10
70969;BMP280;58630;43.022;25.100;2024-02-15T04:25:57;;;;10.10
70969;BMP280;58630;43.022;25.100;2024-02-15T04:28:23;;;;10.10
70969;BMP280;58630;43.022;25.100;2024-02-15T04:30:48;;;;10.10
70969;BMP280;58630;43.022;25.100;2024-02-15T04:33:15;;;;10.10
70969;BMP280;58630;43.022;25.100;2024-02-15T04:35:41;;;;10.00
70969;BMP280;58630;43.022;25.100;2024-02-15T04:38:06;;;;10.00
70969;BMP280;58630;43.022;25.100;2024-02-15T04:40:33;;;;10.10
70969;BMP280;58630;43.022;25.100;2024-02-15T04:42:59;;;;10.00
70969;BMP280;58630;43.022;25.100;2024-02-15T04:45:27;;;;10.00
70969;BMP280;58630;43.022;25.100;2024-02-15T04:47:52;;;;10.00
70969;BMP280;58630;43.022;25.100;2024-02-15T04:50:19;;;;10.00
70969;BMP280;58630;43.022;25.100;2024-02-15T04:52:46;;;;10.00
70969;BMP280;58630;43.022;25.100;2024-02-15T04:55:13;;;;10.00
70969;BMP280;58630;43.022;25.100;2024-02-15T04:57:41;;;;10.00
70969;BMP280;58630;43.022;25.100;2024-02-15T05:00:06;;;;10.00
70969;BMP280;58630;43.022;25.100;2024-02-15T05:02:39;;;;10.00
70969;BMP280;58630;43.022;25.100;2024-02-15T05:05:06;;;;10.00
70969;BMP280;58630;43.022;25.100;2024-02-15T05:07:33;;;;10.00
70969;BMP280;58630;43.022;25.100;2024-02-15T05:09:59;;;;10.00
70969;BMP280;58630;43.022;25.100;2024-02-15T05:12:24;;;;10.00
70969;BMP280;58630;43.022;25.100;2024-02-15T05:14:50;;;;10.00
70969;BMP280;58630;43.022;25.100;2024-02-15T05:17:19;;;;10.00
70969;BMP280;58630;43.022;25.100;2024-02-15T05:19:44;;;;10.00
70969;BMP280;58630;43.022;25.100;2024-02-15T05:22:10;;;;10.00
70969;BMP280;58630;43.022;25.100;2024-02-15T05:24:36;;;;10.00
70969;BMP280;58630;43.022;25.100;2024-02-15T05:27:04;;;;10.00
70969;BMP280;58630;43.022;25.100;2024-02-15T05:29:29;;;;10.00
70969;BMP280;58630;43.022;25.100;2024-02-15T05:31:59;;;;10.00
70969;BMP280;58630;43.022;25.100;2024-02-15T05:34:25;;;;10.00
70969;BMP280;58630;43.022;25.100;2024-02-15T05:36:50;;;;10.00
70969;BMP280;58630;43.022;25.100;2024-02-15T05:39:17;;;;10.00
70969;BMP280;58630;43.022;25.100;2024-02-15T05:41:45;;;;10.00
70969;BMP280;58630;43.022;25.100;2024-02-15T05:44:11;;;;10.00
70969;BMP280;58630;43.022;25.100;2024-02-15T05:46:37;;;;9.90
70969;BMP280;58630;43.022;25.100;2024-02-15T05:49:04;;;;9.90
70969;BMP280;58630;43.022;25.100;2024-02-15T05:51:30;;;;9.90
70969;BMP280;58630;43.022;25.100;2024-02-15T05:53:56;;;;10.00
70969;BMP280;58630;43.022;25.100;2024-02-15T05:56:23;;;;9.90
70969;BMP280;58630;43.022;25.100;2024-02-15T05:58:49;;;;10.00
70969;BMP280;58630;43.022;25.100;2024-02-15T06:01:14;;;;9.90
70969;BMP280;58630;43.022;25.100;2024-02-15T06:03:40;;;;10.00
70969;BMP280;58630;43.022;25.100;2024-02-15T06:06:09;;;;9.90
70969;BMP280;58630;43.022;25.100;2024-02-15T06:08:36;;;;9.90
70969;BMP280;58630;43.022;25.100;2024-02-15T06:11:03;;;;9.90
70969;BMP280;58630;43.022;25.100;2024-02-15T06:13:29;;;;9.90
70969;BMP280;58630;43.022;25.100;2024-02-15T06:15:54;;;;10.00
70969;BMP280;58630;43.022;25.100;2024-02-15T06:18:23;;;;9.90
70969;BMP280;58630;43.022;25.100;2024-02-15T06:20:54;;;;9.90
70969;BMP280;58630;43.022;25.100;2024-02-15T06:23:22;;;;9.90
70969;BMP280;58630;43.022;25.100;2024-02-15T06:25:48;;;;9.90
70969;BMP280;58630;43.022;25.100;2024-02-15T06:28:16;;;;9.90
70969;BMP280;58630;43.022;25.100;2024-02-15T06:31:04;;;;9.90
70969;BMP280;58630;43.022;25.100;2024-02-15T06:33:48;;;;10.00
70969;BMP280;58630;43.022;25.100;2024-02-15T06:36:33;;;;10.00
70969;BMP280;58630;43.022;25.100;2024-02-15T06:39:17;;;;10.00
70969;BMP280;58630;43.022;25.100;2024-02-15T06:42:01;;;;9.90
70969;BMP280;58630;43.022;25.100;2024-02-15T06:44:27;;;;10.00
70969;BMP280;58630;43.022;25.100;2024-02-15T06:46:52;;;;10.00
70969;BMP280;58630;43.022;25.100;2024-02-15T06:49:18;;;;10.00
70969;BMP280;58630;43.022;25.100;2024-02-15T06:51:43;;;;10.00
70969;BMP280;58630;43.022;25.100;2024-02-15T06:54:12;;;;10.00
70969;BMP280;58630;43.022;25.100;2024-02-15T06:56:38;;;;10.00
70969;BMP280;58630;43.022;25.100;2024-02-15T06:59:05;;;;10.00
70969;BMP280;58630;43.022;25.100;2024-02-15T07:01:30;;;;10.00
70969;BMP280;58630;43.022;25.100;2024-02-15T07:03:57;;;;10.00
70969;BMP280;58630;43.022;25.100;2024-02-15T07:06:23;;;;10.00
70969;BMP280;58630;43.022;25.100;2024-02-15T07:08:48;;;;10.00
70969;BMP280;58630;43.022;25.100;2024-02-15T07:11:16;;;;10.00
70969;BMP280;58630;43.022;25.100;2024-02-15T07:13:41;;;;10.10
70969;BMP280;58630;43.022;25.100;2024-02-15T07:16:07;;;;10.10
70969;BMP280;58630;43.022;25.100;2024-02-15T07:18:33;;;;10.00
70969;BMP280;58630;43.022;25.100;2024-02-15T07:20:58;;;;10.10
70969;BMP280;58630;43.022;25.100;2024-02-15T07:23:26;;;;10.10
70969;BMP280;58630;43.022;25.100;2024-02-15T07:25:52;;;;10.10
70969;BMP280;58630;43.022;25.100;2024-02-15T07:28:20;;;;10.10
70969;BMP280;58630;43.022;25.100;2024-02-15T07:30:46;;;;10.10
70969;BMP280;58630;43.022;25.100;2024-02-15T07:33:14;;;;10.10
70969;BMP280;58630;43.022;25.100;2024-02-15T07:35:41;;;;10.10
70969;BMP280;58630;43.022;25.100;2024-02-15T07:38:07;;;;10.10
70969;BMP280;58630;43.022;25.100;2024-02-15T07:40:33;;;;10.10
70969;BMP280;58630;43.022;25.100;2024-02-15T07:42:58;;;;10.10
70969;BMP280;58630;43.022;25.100;2024-02-15T07:45:24;;;;10.10
70969;BMP280;58630;43.022;25.100;2024-02-15T07:47:49;;;;10.10
70969;BMP280;58630;43.022;25.100;2024-02-15T07:50:18;;;;10.10
70969;BMP280;58630;43.022;25.100;2024-02-15T07:52:48;;;;10.10
70969;BMP280;58630;43.022;25.100;2024-02-15T07:55:14;;;;10.10
70969;BMP280;58630;43.022;25.100;2024-02-15T07:57:40;;;;10.10
70969;BMP280;58630;43.022;25.100;2024-02-15T08:00:06;;;;10.10
70969;BMP280;58630;43.022;25.100;2024-02-15T08:02:38;;;;10.10
70969;BMP280;58630;43.022;25.100;2024-02-15T08:05:07;;;;10.10
70969;BMP280;58630;43.022;25.100;2024-02-15T08:07:42;;;;10.20
70969;BMP280;58630;43.022;25.100;2024-02-15T08:10:09;;;;10.10
70969;BMP280;58630;43.022;25.100;2024-02-15T08:12:41;;;;10.20
70969;BMP280;58630;43.022;25.100;2024-02-15T08:15:07;;;;10.20
70969;BMP280;58630;43.022;25.100;2024-02-15T08:17:45;;;;10.20
70969;BMP280;58630;43.022;25.100;2024-02-15T08:20:11;;;;10.20
70969;BMP280;58630;43.022;25.100;2024-02-15T08:22:37;;;;10.20
70969;BMP280;58630;43.022;25.100;2024-02-15T08:27:31;;;;10.20
70969;BMP280;58630;43.022;25.100;2024-02-15T08:29:59;;;;10.20
70969;BMP280;58630;43.022;25.100;2024-02-15T08:32:24;;;;10.20
70969;BMP280;58630;43.022;25.100;2024-02-15T08:34:50;;;;10.20
70969;BMP280;58630;43.022;25.100;2024-02-15T08:37:15;;;;10.20
70969;BMP280;58630;43.022;25.100;2024-02-15T08:39:41;;;;10.20
70969;BMP280;58630;43.022;25.100;2024-02-15T08:42:10;;;;10.30
70969;BMP280;58630;43.022;25.100;2024-02-15T08:44:36;;;;10.30
70969;BMP280;58630;43.022;25.100;2024-02-15T08:47:02;;;;10.30
70969;BMP280;58630;43.022;25.100;2024-02-15T08:49:27;;;;10.30
70969;BMP280;58630;43.022;25.100;2024-02-15T08:51:56;;;;10.30
70969;BMP280;58630;43.022;25.100;2024-02-15T08:54:21;;;;10.30
70969;BMP280;58630;43.022;25.100;2024-02-15T08:56:47;;;;10.30
70969;BMP280;58630;43.022;25.100;2024-02-15T08:59:12;;;;10.40
70969;BMP280;58630;43.022;25.100;2024-02-15T09:01:40;;;;10.40
70969;BMP280;58630;43.022;25.100;2024-02-15T09:04:06;;;;10.40
70969;BMP280;58630;43.022;25.100;2024-02-15T09:06:31;;;;10.40
70969;BMP280;58630;43.022;25.100;2024-02-15T09:08:57;;;;10.40
70969;BMP280;58630;43.022;25.100;2024-02-15T09:11:27;;;;10.40
70969;BMP280;58630;43.022;25.100;2024-02-15T09:13:54;;;;10.40
70969;BMP280;58630;43.022;25.100;2024-02-15T09:16:20;;;;10.40
70969;BMP280;58630;43.022;25.100;2024-02-15T09:18:47;;;;10.40
70969;BMP280;58630;43.022;25.100;2024-02-15T09:21:12;;;;10.40
70969;BMP280;58630;43.022;25.100;2024-02-15T09:23:38;;;;10.40
70969;BMP280;58630;43.022;25.100;2024-02-15T09:26:04;;;;10.40
70969;BMP280;58630;43.022;25.100;2024-02-15T09:28:29;;;;10.40
70969;BMP280;58630;43.022;25.100;2024-02-15T09:30:56;;;;10.40
70969;BMP280;58630;43.022;25.100;2024-02-15T09:33:24;;;;10.40
70969;BMP280;58630;43.022;25.100;2024-02-15T09:35:51;;;;10.50
70969;BMP280;58630;43.022;25.100;2024-02-15T09:38:16;;;;10.50
70969;BMP280;58630;43.022;25.100;2024-02-15T09:40:44;;;;10.50
70969;BMP280;58630;43.022;25.100;2024-02-15T09:43:09;;;;10.50
70969;BMP280;58630;43.022;25.100;2024-02-15T09:45:38;;;;10.50
70969;BMP280;58630;43.022;25.100;2024-02-15T09:48:05;;;;10.50
70969;BMP280;58630;43.022;25.100;2024-02-15T09:50:31;;;;10.60
70969;BMP280;58630;43.022;25.100;2024-02-15T09:52:58;;;;10.60
70969;BMP280;58630;43.022;25.100;2024-02-15T09:55:24;;;;10.60
70969;BMP280;58630;43.022;25.100;2024-02-15T09:57:50;;;;10.60
70969;BMP280;58630;43.022;25.100;2024-02-15T10:00:16;;;;10.60
70969;BMP280;58630;43.022;25.100;2024-02-15T10:02:49;;;;10.60
70969;BMP280;58630;43.022;25.100;2024-02-15T10:05:16;;;;10.60
70969;BMP280;58630;43.022;25.100;2024-02-15T10:07:43;;;;10.60
70969;BMP280;58630;43.022;25.100;2024-02-15T10:10:29;;;;10.70
70969;BMP280;58630;43.022;25.100;2024-02-15T10:12:55;;;;10.70
70969;BMP280;58630;43.022;25.100;2024-02-15T10:15:30;;;;10.70
70969;BMP280;58630;43.022;25.100;2024-02-15T10:17:57;;;;10.70
70969;BMP280;58630;43.022;25.100;2024-02-15T10:20:24;;;;10.70
70969;BMP280;58630;43.022;25.100;2024-02-15T10:23:12;;;;10.70
70969;BMP280;58630;43.022;25.100;2024-02-15T10:25:37;;;;10.70
70969;BMP280;58630;43.022;25.100;2024-02-15T10:28:05;;;;10.70
70969;BMP280;58630;43.022;25.100;2024-02-15T10:30:33;;;;10.70
70969;BMP280;58630;43.022;25.100;2024-02-15T10:32:59;;;;10.70
70969;BMP280;58630;43.022;25.100;2024-02-15T10:35:24;;;;10.80
70969;BMP280;58630;43.022;25.100;2024-02-15T10:37:50;;;;10.80
70969;BMP280;58630;43.022;25.100;2024-02-15T10:40:19;;;;10.80
70969;BMP280;58630;43.022;25.100;2024-02-15T10:42:48;;;;10.80
70969;BMP280;58630;43.022;25.100;2024-02-15T10:45:16;;;;10.80
70969;BMP280;58630;43.022;25.100;2024-02-15T10:47:46;;;;10.80
70969;BMP280;58630;43.022;25.100;2024-02-15T10:50:13;;;;10.80
70969;BMP280;58630;43.022;25.100;2024-02-15T10:52:42;;;;10.80
70969;BMP280;58630;43.022;25.100;2024-02-15T10:55:10;;;;10.80
70969;BMP280;58630;43.022;25.100;2024-02-15T10:57:39;;;;10.90
70969;BMP280;58630;43.022;25.100;2024-02-15T11:00:05;;;;10.90
70969;BMP280;58630;43.022;25.100;2024-02-15T11:02:59;;;;10.90
70969;BMP280;58630;43.022;25.100;2024-02-15T11:05:34;;;;11.00
70969;BMP280;58630;43.022;25.100;2024-02-15T11:08:07;;;;11.00
70969;BMP280;58630;43.022;25.100;2024-02-15T11:10:34;;;;11.00
70969;BMP280;58630;43.022;25.100;2024-02-15T11:13:00;;;;11.00
70969;BMP280;58630;43.022;25.100;2024-02-15T11:18:02;;;;11.10
70969;BMP280;58630;43.022;25.100;2024-02-15T11:23:01;;;;11.20
70969;BMP280;58630;43.022;25.100;2024-02-15T11:25:38;;;;11.20
70969;BMP280;58630;43.022;25.100;2024-02-15T11:30:49;;;;11.30
70969;BMP280;58630;43.022;25.100;2024-02-15T11:33:33;;;;11.30
70969;BMP280;58630;43.022;25.100;2024-02-15T11:38:30;;;;11.40
70969;BMP280;58630;43.022;25.100;2024-02-15T11:46:08;;;;11.50
70969;BMP280;58630;43.022;25.100;2024-02-15T11:48:36;;;;11.60
70969;BMP280;58630;43.022;25.100;2024-02-15T11:51:04;;;;11.60
70969;BMP280;58630;43.022;25.100;2024-02-15T11:53:31;;;;11.60
70969;BMP280;58630;43.022;25.100;2024-02-15T11:56:01;;;;11.60
70969;BMP280;58630;43.022;25.100;2024-02-15T11:58:27;;;;11.60
70969;BMP280;58630;43.022;25.100;2024-02-15T12:01:11;;;;11.60
70969;BMP280;58630;43.022;25.100;2024-02-15T12:03:55;;;;11.60
70969;BMP280;58630;43.022;25.100;2024-02-15T12:06:39;;;;11.60
70969;BMP280;58630;43.022;25.100;2024-02-15T12:09:23;;;;11.60
70969;BMP280;58630;43.022;25.100;2024-02-15T12:12:11;;;;11.60
70969;BMP280;58630;43.022;25.100;2024-02-15T12:18:17;;;;11.50
70969;BMP280;58630;43.022;25.100;2024-02-15T12:21:01;;;;11.60
70969;BMP280;58630;43.022;25.100;2024-02-15T12:23:28;;;;11.50
70969;BMP280;58630;43.022;25.100;2024-02-15T12:25:53;;;;11.50
70969;BMP280;58630;43.022;25.100;2024-02-15T12:28:19;;;;11.50
70969;BMP280;58630;43.022;25.100;2024-02-15T12:30:44;;;;11.50
70969;BMP280;58630;43.022;25.100;2024-02-15T12:33:12;;;;11.50
70969;BMP280;58630;43.022;25.100;2024-02-15T12:35:37;;;;11.50
70969;BMP280;58630;43.022;25.100;2024-02-15T12:38:03;;;;11.50
70969;BMP280;58630;43.022;25.100;2024-02-15T12:40:34;;;;11.50
70969;BMP280;58630;43.022;25.100;2024-02-15T12:43:00;;;;11.50
70969;BMP280;58630;43.022;25.100;2024-02-15T12:45:26;;;;11.60
70969;BMP280;58630;43.022;25.100;2024-02-15T12:47:55;;;;11.50
70969;BMP280;58630;43.022;25.100;2024-02-15T12:50:21;;;;11.60
70969;BMP280;58630;43.022;25.100;2024-02-15T12:52:47;;;;11.60
70969;BMP280;58630;43.022;25.100;2024-02-15T12:55:14;;;;11.60
70969;BMP280;58630;43.022;25.100;2024-02-15T12:57:40;;;;11.60
70969;BMP280;58630;43.022;25.100;2024-02-15T13:00:07;;;;11.60
70969;BMP280;58630;43.022;25.100;2024-02-15T13:02:39;;;;11.60
70969;BMP280;58630;43.022;25.100;2024-02-15T13:05:05;;;;11.60
70969;BMP280;58630;43.022;25.100;2024-02-15T13:07:34;;;;11.60
70969;BMP280;58630;43.022;25.100;2024-02-15T13:10:00;;;;11.60
70969;BMP280;58630;43.022;25.100;2024-02-15T13:12:25;;;;11.60
70969;BMP280;58630;43.022;25.100;2024-02-15T13:14:51;;;;11.60
70969;BMP280;58630;43.022;25.100;2024-02-15T13:17:16;;;;11.60
70969;BMP280;58630;43.022;25.100;2024-02-15T13:19:45;;;;11.60
70969;BMP280;58630;43.022;25.100;2024-02-15T13:22:12;;;;11.70
70969;BMP280;58630;43.022;25.100;2024-02-15T13:24:37;;;;11.70
70969;BMP280;58630;43.022;25.100;2024-02-15T13:27:04;;;;11.70
70969;BMP280;58630;43.022;25.100;2024-02-15T13:29:29;;;;11.70
70969;BMP280;58630;43.022;25.100;2024-02-15T13:31:57;;;;11.70
70969;BMP280;58630;43.022;25.100;2024-02-15T13:34:23;;;;11.80
70969;BMP280;58630;43.022;25.100;2024-02-15T13:36:49;;;;11.80
70969;BMP280;58630;43.022;25.100;2024-02-15T13:39:15;;;;11.90
70969;BMP280;58630;43.022;25.100;2024-02-15T13:41:40;;;;12.00
70969;BMP280;58630;43.022;25.100;2024-02-15T13:44:06;;;;12.10
70969;BMP280;58630;43.022;25.100;2024-02-15T13:46:32;;;;12.20
70969;BMP280;58630;43.022;25.100;2024-02-15T13:48:57;;;;12.20
70969;BMP280;58630;43.022;25.100;2024-02-15T13:51:23;;;;12.20
70969;BMP280;58630;43.022;25.100;2024-02-15T13:53:49;;;;12.20
70969;BMP280;58630;43.022;25.100;2024-02-15T13:56:15;;;;12.20
70969;BMP280;58630;43.022;25.100;2024-02-15T13:58:41;;;;12.20
70969;BMP280;58630;43.022;25.100;2024-02-15T14:01:07;;;;12.20
70969;BMP280;58630;43.022;25.100;2024-02-15T14:03:33;;;;12.20
70969;BMP280;58630;43.022;25.100;2024-02-15T14:05:59;;;;12.20
70969;BMP280;58630;43.022;25.100;2024-02-15T14:08:25;;;;12.20
70969;BMP280;58630;43.022;25.100;2024-02-15T14:10:51;;;;12.20
70969;BMP280;58630;43.022;25.100;2024-02-15T14:13:16;;;;12.30
70969;BMP280;58630;43.022;25.100;2024-02-15T14:15:43;;;;12.40
70969;BMP280;58630;43.022;25.100;2024-02-15T14:18:09;;;;12.50
70969;BMP280;58630;43.022;25.100;2024-02-15T14:20:44;;;;12.60
70969;BMP280;58630;43.022;25.100;2024-02-15T14:23:12;;;;12.80
70969;BMP280;58630;43.022;25.100;2024-02-15T14:25:41;;;;12.90
70969;BMP280;58630;43.022;25.100;2024-02-15T14:28:07;;;;12.90
70969;BMP280;58630;43.022;25.100;2024-02-15T14:30:33;;;;12.90
70969;BMP280;58630;43.022;25.100;2024-02-15T14:33:18;;;;12.90
70969;BMP280;58630;43.022;25.100;2024-02-15T14:35:44;;;;12.90
70969;BMP280;58630;43.022;25.100;2024-02-15T14:38:10;;;;12.90
70969;BMP280;58630;43.022;25.100;2024-02-15T14:43:02;;;;12.80
70969;BMP280;58630;43.022;25.100;2024-02-15T14:45:32;;;;12.80
70969;BMP280;58630;43.022;25.100;2024-02-15T14:47:58;;;;12.80
70969;BMP280;58630;43.022;25.100;2024-02-15T14:50:23;;;;12.70
70969;BMP280;58630;43.022;25.100;2024-02-15T14:52:49;;;;12.70
70969;BMP280;58630;43.022;25.100;2024-02-15T14:55:15;;;;12.70
70969;BMP280;58630;43.022;25.100;2024-02-15T14:57:42;;;;12.70
70969;BMP280;58630;43.022;25.100;2024-02-15T15:00:08;;;;12.60
70969;BMP280;58630;43.022;25.100;2024-02-15T15:02:37;;;;12.60
70969;BMP280;58630;43.022;25.100;2024-02-15T15:05:02;;;;12.60
70969;BMP280;58630;43.022;25.100;2024-02-15T15:07:46;;;;12.60
70969;BMP280;58630;43.022;25.100;2024-02-15T15:10:31;;;;12.60
70969;BMP280;58630;43.022;25.100;2024-02-15T15:13:15;;;;12.60
70969;BMP280;58630;43.022;25.100;2024-02-15T15:15:41;;;;12.60
70969;BMP280;58630;43.022;25.100;2024-02-15T15:18:07;;;;12.60
70969;BMP280;58630;43.022;25.100;2024-02-15T15:20:33;;;;12.60
70969;BMP280;58630;43.022;25.100;2024-02-15T15:22:59;;;;12.60
70969;BMP280;58630;43.022;25.100;2024-02-15T15:25:25;;;;12.60
70969;BMP280;58630;43.022;25.100;2024-02-15T15:27:53;;;;12.60
70969;BMP280;58630;43.022;25.100;2024-02-15T15:30:18;;;;12.60
70969;BMP280;58630;43.022;25.100;2024-02-15T15:32:46;;;;12.60
70969;BMP280;58630;43.022;25.100;2024-02-15T15:35:12;;;;12.60
70969;BMP280;58630;43.022;25.100;2024-02-15T15:37:38;;;;12.50
70969;BMP280;58630;43.022;25.100;2024-02-15T15:40:04;;;;12.50
70969;BMP280;58630;43.022;25.100;2024-02-15T15:42:34;;;;12.50
70969;BMP280;58630;43.022;25.100;2024-02-15T15:45:01;;;;12.50
70969;BMP280;58630;43.022;25.100;2024-02-15T15:47:26;;;;12.50
70969;BMP280;58630;43.022;25.100;2024-02-15T15:49:52;;;;12.50
70969;BMP280;58630;43.022;25.100;2024-02-15T15:52:19;;;;12.50
70969;BMP280;58630;43.022;25.100;2024-02-15T15:54:45;;;;12.50
70969;BMP280;58630;43.022;25.100;2024-02-15T15:57:11;;;;12.50
70969;BMP280;58630;43.022;25.100;2024-02-15T15:59:36;;;;12.50
70969;BMP280;58630;43.022;25.100;2024-02-15T16:02:02;;;;12.50
70969;BMP280;58630;43.022;25.100;2024-02-15T16:04:30;;;;12.50
70969;BMP280;58630;43.022;25.100;2024-02-15T16:06:55;;;;12.50
70969;BMP280;58630;43.022;25.100;2024-02-15T16:09:21;;;;12.50